Time;durP1;ratioP1;P1;durP2;ratioP2;P2;SDS_P1;SDS_P2;PMS_P1;PMS_P2;Temp;Humidity;BMP_temperature;BMP_pressure;BME280_temperature;BME280_humidity;BME280_pressure;Samples;Min_cycle;Max_cycle;Signal;HPM_P1;HPM_P2
2021/07/10 00:00:33;;;;;;;7.37;6.67;;;;;;;21.71;100.00;101030.30;1756213;80;21559;-44
2021/07/10 00:03:00;;;;;;;7.92;6.85;;;;;;;21.67;100.00;101027.05;1751841;81;20957;-42
2021/07/10 00:05:26;;;;;;;8.20;7.08;;;;;;;21.63;100.00;101035.12;1757455;80;21042;-42
2021/07/10 00:07:53;;;;;;;7.12;6.42;;;;;;;21.61;100.00;101033.05;1749713;80;21420;-44
2021/07/10 00:10:19;;;;;;;9.05;7.20;;;;;;;21.52;100.00;101032.56;1750982;80;20987;-43
2021/07/10 00:12:46;;;;;;;7.53;6.28;;;;;;;21.39;100.00;101029.70;1752323;80;20947;-44
2021/07/10 00:15:16;;;;;;;7.05;6.45;;;;;;;21.34;100.00;101041.46;1754655;80;21469;-43
2021/07/10 00:17:44;;;;;;;7.65;6.95;;;;;;;21.32;100.00;101039.90;1758073;80;20961;-43
2021/07/10 00:20:12;;;;;;;7.05;6.35;;;;;;;21.32;100.00;101036.67;1753878;80;20983;-44
2021/07/10 00:22:39;;;;;;;7.03;6.40;;;;;;;21.32;100.00;101040.75;1753078;80;20969;-44
2021/07/10 00:25:12;;;;;;;5.80;5.25;;;;;;;21.31;100.00;101037.66;1749190;81;21011;-44
2021/07/10 00:27:40;;;;;;;7.03;5.95;;;;;;;21.29;100.00;101038.33;1749981;81;20990;-44
2021/07/10 00:30:08;;;;;;;7.67;6.97;;;;;;;21.30;100.00;101035.11;1751603;81;20953;-42
2021/07/10 00:32:35;;;;;;;9.10;7.25;;;;;;;21.28;100.00;101033.89;1749726;80;21021;-42
2021/07/10 00:35:04;;;;;;;8.48;6.60;;;;;;;21.28;100.00;101035.75;1719465;82;20948;-42
2021/07/10 00:37:31;;;;;;;7.12;6.53;;;;;;;21.28;100.00;101032.53;1691427;83;20998;-43
2021/07/10 00:39:59;;;;;;;7.12;6.53;;;;;;;21.29;100.00;101035.62;1691049;83;21513;-42
2021/07/10 00:42:25;;;;;;;7.30;6.45;;;;;;;21.30;100.00;101026.98;1693176;83;20969;-43
2021/07/10 00:44:52;;;;;;;7.62;6.65;;;;;;;21.27;100.00;101027.24;1680231;83;20986;-43
2021/07/10 00:47:19;;;;;;;12.47;7.28;;;;;;;21.24;100.00;101023.48;1719057;82;20964;-42
2021/07/10 00:49:46;;;;;;;11.70;7.90;;;;;;;21.20;100.00;101022.92;1716794;82;21447;-42
2021/07/10 00:52:12;;;;;;;7.42;6.70;;;;;;;21.12;100.00;101014.16;1723097;82;20932;-41
2021/07/10 00:54:39;;;;;;;9.63;7.47;;;;;;;21.05;100.00;101009.47;1718971;82;20974;-43
2021/07/10 00:57:07;;;;;;;8.28;7.25;;;;;;;20.98;100.00;101011.05;1695631;83;21471;-43
2021/07/10 00:59:35;;;;;;;9.88;7.60;;;;;;;20.93;100.00;101005.55;1694902;82;21555;-42
2021/07/10 01:02:03;;;;;;;8.60;6.58;;;;;;;20.89;100.00;101008.20;1711380;82;20980;-40
2021/07/10 01:04:30;;;;;;;7.90;6.40;;;;;;;20.91;100.00;101009.40;1715567;82;20979;-42
2021/07/10 01:06:57;;;;;;;6.97;6.28;;;;;;;20.92;100.00;101006.56;1717998;82;20987;-41
2021/07/10 01:09:23;;;;;;;8.63;6.20;;;;;;;20.94;100.00;101007.75;1715899;82;21034;-42
2021/07/10 01:11:51;;;;;;;7.03;6.22;;;;;;;20.96;100.00;101009.82;1716538;82;21000;-42
2021/07/10 01:14:20;;;;;;;6.50;5.90;;;;;;;20.98;100.00;101013.75;1719859;82;21482;-42
2021/07/10 01:16:48;;;;;;;6.80;6.22;;;;;;;20.97;100.00;101007.48;1721109;82;21950;-41
2021/07/10 01:19:26;;;;;;;6.78;6.03;;;;;;;20.97;100.00;101007.48;1718864;82;20983;-42
2021/07/10 01:21:52;;;;;;;7.25;6.55;;;;;;;21.01;100.00;101004.82;1713380;82;20985;-42
2021/07/10 01:24:19;;;;;;;8.20;7.40;;;;;;;21.08;100.00;101007.31;1713671;82;21016;-41
2021/07/10 01:26:45;;;;;;;7.03;6.33;;;;;;;21.14;100.00;101005.87;1713128;82;20983;-42
2021/07/10 01:29:12;;;;;;;6.97;5.75;;;;;;;21.19;100.00;100998.15;1719222;82;20959;-42
2021/07/10 01:31:39;;;;;;;7.60;6.90;;;;;;;21.25;100.00;100990.80;1715501;82;20983;-43
2021/07/10 01:34:05;;;;;;;7.70;6.62;;;;;;;21.30;100.00;100991.22;1720496;82;20947;-41
2021/07/10 01:36:33;;;;;;;7.22;6.05;;;;;;;21.35;100.00;100988.91;1717637;82;21431;-42
2021/07/10 01:39:06;;;;;;;7.08;6.15;;;;;;;21.38;100.00;100992.72;1712463;82;20943;-43
2021/07/10 01:41:46;;;;;;;6.20;5.62;;;;;;;21.41;100.00;100988.85;1716337;82;20960;-40
2021/07/10 01:44:13;;;;;;;10.40;6.70;;;;;;;21.43;100.00;100989.56;1723058;82;20922;-41
2021/07/10 01:46:40;;;;;;;6.45;5.72;;;;;;;21.45;100.00;100985.36;1735965;81;20963;-40
2021/07/10 01:49:06;;;;;;;6.28;5.50;;;;;;;21.46;100.00;100983.84;1743225;81;20954;-42
2021/07/10 01:51:33;;;;;;;6.80;6.15;;;;;;;21.47;100.00;100977.91;1749719;81;21322;-43
2021/07/10 01:54:00;;;;;;;7.42;6.58;;;;;;;21.49;100.00;100982.69;1746889;81;20964;-42
2021/07/10 01:56:27;;;;;;;8.30;6.45;;;;;;;21.48;100.00;100981.84;1748832;81;20971;-44
2021/07/10 01:58:55;;;;;;;7.25;6.50;;;;;;;21.49;100.00;100979.97;1740984;81;20955;-41
2021/07/10 02:01:23;;;;;;;8.18;5.90;;;;;;;21.47;100.00;100977.91;1746619;81;21024;-43
2021/07/10 02:03:49;;;;;;;8.13;6.15;;;;;;;21.47;100.00;100980.14;1746990;80;21506;-41
2021/07/10 02:06:16;;;;;;;7.72;6.87;;;;;;;21.45;100.00;100975.36;1750458;80;20963;-40
2021/07/10 02:08:43;;;;;;;7.60;6.80;;;;;;;21.42;100.00;100971.59;1744117;80;21346;-42
2021/07/10 02:11:10;;;;;;;6.55;5.85;;;;;;;21.43;100.00;100981.43;1742559;81;20959;-42
2021/07/10 02:13:38;;;;;;;7.70;6.20;;;;;;;21.44;100.00;100974.14;1747692;81;21447;-44
2021/07/10 02:16:06;;;;;;;9.05;6.28;;;;;;;21.46;100.00;100971.63;1741415;80;20940;-44
2021/07/10 02:18:34;;;;;;;6.90;5.75;;;;;;;21.48;100.00;100973.70;1748692;81;20992;-40
2021/07/10 02:21:02;;;;;;;7.33;6.58;;;;;;;21.48;100.00;100968.27;1748107;80;21781;-43
2021/07/10 02:23:31;;;;;;;8.78;6.83;;;;;;;21.50;100.00;100969.50;1748576;80;21003;-41
2021/07/10 02:25:57;;;;;;;7.50;6.80;;;;;;;21.51;100.00;100969.33;1746530;81;20994;-42
2021/07/10 02:28:24;;;;;;;7.50;6.08;;;;;;;21.52;100.00;100971.53;1748862;80;20956;-44
2021/07/10 02:30:50;;;;;;;7.90;6.62;;;;;;;21.51;100.00;100972.55;1746617;81;20943;-40
2021/07/10 02:33:17;;;;;;;8.68;7.78;;;;;;;21.51;100.00;100971.19;1749720;81;20959;-40
2021/07/10 02:35:44;;;;;;;6.50;5.90;;;;;;;21.51;100.00;100976.11;1741944;81;20960;-39
2021/07/10 02:38:12;;;;;;;9.50;5.85;;;;;;;21.52;100.00;100978.31;1738913;81;20957;-42
2021/07/10 02:40:39;;;;;;;8.63;6.35;;;;;;;21.53;100.00;100977.33;1748413;81;20951;-40
2021/07/10 02:43:05;;;;;;;7.45;6.58;;;;;;;21.52;100.00;100971.05;1746567;80;20999;-41
2021/07/10 02:45:34;;;;;;;7.35;6.65;;;;;;;21.52;100.00;100971.05;1747274;80;20933;-40
2021/07/10 02:48:02;;;;;;;8.40;6.15;;;;;;;21.51;100.00;100978.82;1744172;81;21019;-40
2021/07/10 02:50:31;;;;;;;10.88;6.65;;;;;;;21.50;100.00;100979.84;1735794;81;21331;-40
2021/07/10 02:53:01;;;;;;;7.40;5.97;;;;;;;21.51;100.00;100968.48;1731953;81;20944;-43
2021/07/10 02:55:29;;;;;;;6.80;5.80;;;;;;;21.50;100.00;100966.27;1736137;81;20944;-40
2021/07/10 02:57:55;;;;;;;6.83;6.05;;;;;;;21.52;100.00;100968.81;1736839;81;21490;-39
2021/07/10 03:00:24;;;;;;;6.83;5.55;;;;;;;21.52;100.00;100965.63;1727816;81;21079;-41
2021/07/10 03:02:51;;;;;;;7.33;5.70;;;;;;;21.55;100.00;100963.12;1733626;81;21455;-41
2021/07/10 03:05:18;;;;;;;7.65;6.08;;;;;;;21.57;100.00;100963.80;1737886;81;20987;-42
2021/07/10 03:07:47;;;;;;;7.15;6.20;;;;;;;21.59;100.00;100968.06;1732887;81;21470;-43
2021/07/10 03:10:17;;;;;;;9.68;6.35;;;;;;;21.60;100.00;100967.59;1732681;81;20963;-41
2021/07/10 03:12:45;;;;;;;7.15;5.97;;;;;;;21.60;100.00;100967.59;1729231;82;20991;-45
2021/07/10 03:15:16;;;;;;;6.85;5.92;;;;;;;21.62;100.00;100972.37;1732199;81;20960;-43
2021/07/10 03:17:42;;;;;;;8.53;7.62;;;;;;;21.65;100.00;100968.50;1735181;81;21959;-45
2021/07/10 03:20:11;;;;;;;18.80;17.15;;;;;;;21.69;100.00;100968.53;1728823;81;20960;-46
2021/07/10 03:22:38;;;;;;;14.75;13.45;;;;;;;21.71;100.00;100963.31;1734966;81;20960;-45
2021/07/10 03:25:07;;;;;;;10.88;9.75;;;;;;;21.74;100.00;100964.88;1734463;81;21881;-42
2021/07/10 03:27:33;;;;;;;11.90;8.78;;;;;;;21.77;100.00;100966.80;1735956;81;20984;-43
2021/07/10 03:30:00;;;;;;;7.87;6.65;;;;;;;21.79;100.00;100974.77;1728879;81;21008;-42
2021/07/10 03:32:27;;;;;;;7.50;6.80;;;;;;;21.83;100.00;100965.33;1734029;81;21370;-44
2021/07/10 03:34:53;;;;;;;8.83;7.35;;;;;;;21.89;100.00;100959.80;1735824;81;20944;-43
2021/07/10 03:37:20;;;;;;;10.00;7.22;;;;;;;21.93;100.00;100957.14;1730444;81;21436;-45
2021/07/10 03:39:46;;;;;;;9.85;7.58;;;;;;;21.95;100.00;100957.84;1729926;81;20946;-45
2021/07/10 03:42:13;;;;;;;9.93;7.55;;;;;;;21.98;100.00;100960.25;1730564;81;21003;-42
2021/07/10 03:44:39;;;;;;;8.63;7.20;;;;;;;22.02;100.00;100962.99;1735239;81;20984;-43
2021/07/10 03:47:06;;;;;;;9.48;8.00;;;;;;;22.04;100.00;100956.91;1735530;81;21020;-42
2021/07/10 03:49:33;;;;;;;8.23;6.97;;;;;;;22.08;100.00;100956.13;1743065;81;20977;-44
2021/07/10 03:52:01;;;;;;;8.25;6.72;;;;;;;22.09;100.00;100959.17;1747176;81;20964;-45
2021/07/10 03:54:27;;;;;;;8.05;7.25;;;;;;;22.14;100.00;100964.48;1749756;81;20921;-43
2021/07/10 03:56:54;;;;;;;8.18;7.37;;;;;;;22.17;100.00;100966.04;1747424;81;20991;-43
2021/07/10 03:59:20;;;;;;;7.10;6.35;;;;;;;22.22;100.00;100958.32;1747085;81;20953;-44
2021/07/10 04:01:48;;;;;;;9.13;7.25;;;;;;;22.24;100.00;100959.88;1746208;80;21019;-43
2021/07/10 04:04:14;;;;;;;8.50;7.62;;;;;;;22.32;100.00;100960.45;1746647;81;20952;-47
2021/07/10 04:06:41;;;;;;;9.28;7.75;;;;;;;22.40;100.00;100958.33;1748007;81;21872;-44
2021/07/10 04:09:08;;;;;;;8.93;7.65;;;;;;;22.45;100.00;100951.92;1745584;81;20994;-43
2021/07/10 04:11:36;;;;;;;9.55;8.65;;;;;;;22.49;100.00;100949.25;1747961;81;20979;-43
2021/07/10 04:14:03;;;;;;;9.95;8.58;;;;;;;22.55;100.00;100945.05;1747901;80;20967;-45
2021/07/10 04:16:30;;;;;;;9.95;8.05;;;;;;;22.57;100.00;100938.45;1746385;80;20972;-45
2021/07/10 04:18:56;;;;;;;8.28;7.28;;;;;;;22.61;100.00;100944.44;1745699;80;20991;-44
2021/07/10 04:21:23;;;;;;;8.35;7.03;;;;;;;22.66;100.00;100948.39;1747225;81;21986;-40
2021/07/10 04:23:49;;;;;;;8.78;7.05;;;;;;;22.73;100.00;100942.30;1748991;81;20938;-51
2021/07/10 04:26:16;;;;;;;8.93;7.62;;;;;;;22.78;100.00;100934.05;1748466;80;21007;-41
2021/07/10 04:28:43;;;;;;;8.30;7.37;;;;;;;22.86;100.00;100934.62;1750750;80;21461;-46
2021/07/10 04:31:10;;;;;;;7.75;7.00;;;;;;;22.93;100.00;100933.45;1743307;80;21007;-46
2021/07/10 04:33:37;;;;;;;8.90;7.45;;;;;;;22.99;100.00;100934.23;1752410;81;21432;-44
2021/07/10 04:36:04;;;;;;;8.15;7.10;;;;;;;23.07;100.00;100931.05;1743903;81;21019;-41
2021/07/10 04:38:30;;;;;;;8.05;6.78;;;;;;;23.14;100.00;100933.98;1749589;80;20947;-44
2021/07/10 04:40:57;;;;;;;8.33;7.50;;;;;;;23.21;100.00;100928.73;1749001;81;21397;-50
2021/07/10 04:43:56;;;;;;;;;;;;;;;;;;;;;
2021/07/10 04:47:13;;;;;;;12.15;9.03;;;;;;;23.24;100.00;100922.48;1614168;87;21035;-43
2021/07/10 04:49:42;;;;;;;9.13;7.33;;;;;;;23.32;100.00;100927.95;1430137;98;21166;-43
2021/07/10 04:52:08;;;;;;;7.53;6.80;;;;;;;23.40;100.00;100925.78;1430778;99;21017;-43
2021/07/10 04:54:36;;;;;;;9.98;7.37;;;;;;;23.46;100.00;100927.00;1429322;99;21097;-44
2021/07/10 04:57:03;;;;;;;9.53;6.97;;;;;;;23.53;100.00;100923.97;1433851;99;21534;-42
2021/07/10 04:59:30;;;;;;;6.97;5.85;;;;;;;23.61;100.00;100914.98;1432303;99;21517;-45
2021/07/10 05:01:56;;;;;;;8.40;6.53;;;;;;;23.67;100.00;100912.98;1428978;99;21035;-43
2021/07/10 05:04:23;;;;;;;7.92;5.67;;;;;;;23.74;100.00;100916.80;1427463;99;21019;-44
2021/07/10 05:06:49;;;;;;;7.25;5.42;;;;;;;23.79;100.00;100910.34;1429028;99;21065;-45
2021/07/10 05:09:16;;;;;;;6.22;4.90;;;;;;;23.86;100.00;100910.52;1430221;99;21545;-46
2021/07/10 05:11:47;;;;;;;7.42;4.65;;;;;;;23.91;100.00;100909.50;1430392;99;21070;-45
2021/07/10 05:14:17;;;;;;;5.90;5.22;;;;;;;23.96;100.00;100902.56;1430184;99;21154;-49
2021/07/10 05:16:44;;;;;;;7.22;5.50;;;;;;;24.03;100.00;100896.44;1430204;99;21130;-46
2021/07/10 05:19:11;;;;;;;5.03;4.03;;;;;;;24.08;100.00;100895.42;1428750;99;21064;-48
2021/07/10 05:21:37;;;;;;;4.78;3.80;;;;;;;24.13;100.00;100894.41;1430544;99;21075;-45
2021/07/10 05:24:05;;;;;;;7.15;4.37;;;;;;;24.17;100.00;100890.34;1498990;92;21615;-41
2021/07/10 05:26:31;;;;;;;6.55;4.30;;;;;;;24.23;100.00;100892.38;1527773;92;21568;-41
2021/07/10 05:28:59;;;;;;;6.42;4.30;;;;;;;24.28;100.00;100884.55;1526244;92;21036;-41
2021/07/10 05:31:26;;;;;;;8.35;5.17;;;;;;;24.33;100.00;100879.95;1523865;92;21060;-41
2021/07/10 05:33:52;;;;;;;5.47;4.85;;;;;;;24.37;100.00;100883.53;1525970;92;21094;-43
2021/07/10 05:36:19;;;;;;;7.83;4.08;;;;;;;24.41;100.00;100882.16;1526206;92;21595;-51
2021/07/10 05:39:38;;;;;;;;;;;;;;;;;;;;;
2021/07/10 05:42:21;;;;;;;5.90;4.70;;;;;;;24.48;100.00;100893.27;1400786;101;21133;-45
2021/07/10 05:44:51;;;;;;;7.22;4.55;;;;;;;24.52;100.00;100894.64;1400956;101;21539;-44
2021/07/10 05:47:18;;;;;;;5.67;4.80;;;;;;;24.57;100.00;100894.13;1400432;101;21580;-42
2021/07/10 05:49:44;;;;;;;6.47;4.65;;;;;;;24.59;100.00;100891.58;1402848;100;21028;-42
2021/07/10 05:52:11;;;;;;;6.60;5.12;;;;;;;24.62;100.00;100893.11;1410429;100;21144;-43
2021/07/10 05:54:38;;;;;;;5.37;4.50;;;;;;;24.62;100.00;100891.74;1404633;100;21109;-43
2021/07/10 05:57:06;;;;;;;5.62;4.80;;;;;;;24.65;100.00;100891.91;1406466;100;21096;-43
2021/07/10 05:59:34;;;;;;;6.60;4.78;;;;;;;24.67;100.00;100887.11;1410440;100;21180;-44
2021/07/10 06:02:06;;;;;;;4.92;4.42;;;;;;;24.70;100.00;100890.36;1412590;100;21536;-46
2021/07/10 06:04:52;;;;;;;6.05;5.45;;;;;;;24.74;100.00;100897.67;1406632;100;21161;-52
2021/07/10 06:07:37;;;;;;;5.67;5.17;;;;;;;24.76;100.00;100892.39;1404932;100;21158;-42
2021/07/10 06:10:10;;;;;;;5.53;4.85;;;;;;;24.81;100.00;100896.81;1405886;100;21577;-45
2021/07/10 06:12:38;;;;;;;5.65;5.12;;;;;;;24.87;100.00;100891.69;1406310;100;21552;-48
2021/07/10 06:15:07;;;;;;;5.97;5.42;;;;;;;24.91;100.00;100883.52;1408750;100;21840;-48
2021/07/10 06:17:33;;;;;;;5.97;5.28;;;;;;;24.94;100.00;100889.45;1410207;96;21623;-47
2021/07/10 06:20:03;;;;;;;5.58;4.90;;;;;;;24.98;100.00;100888.09;1612434;86;21594;-47
2021/07/10 06:26:12;;;;;;;5.42;4.83;;;;;;;25.05;100.00;100897.29;1477161;95;21151;-47
2021/07/10 06:29:03;;;;;;;6.30;4.85;;;;;;;25.11;100.00;100887.55;1477812;95;21039;-52
2021/07/10 06:31:38;;;;;;;6.78;5.03;;;;;;;25.14;100.00;100882.26;1423750;99;21172;-45
2021/07/10 06:34:06;;;;;;;6.17;5.57;;;;;;;25.20;100.00;100885.18;1425320;99;21079;-46
2021/07/10 06:36:34;;;;;;;8.28;5.17;;;;;;;25.24;100.00;100881.05;1424034;99;21098;-51
2021/07/10 06:39:01;;;;;;;7.30;5.20;;;;;;;25.30;100.00;100879.52;1425385;99;21063;-41
2021/07/10 06:41:28;;;;;;;6.50;5.03;;;;;;;25.34;100.00;100875.39;1422986;99;21618;-42
2021/07/10 06:43:56;;;;;;;6.28;4.78;;;;;;;25.39;100.00;100870.77;1423048;99;21077;-42
2021/07/10 06:46:23;;;;;;;5.40;4.70;;;;;;;25.43;100.00;100874.34;1423235;99;21092;-42
2021/07/10 06:48:49;;;;;;;5.75;4.60;;;;;;;25.50;100.00;100873.09;1424635;99;21108;-55
2021/07/10 06:51:54;;;;;;;4.80;4.33;;;;;;;25.56;100.00;100874.29;1421219;99;21123;-44
2021/07/10 06:54:28;;;;;;;6.20;4.80;;;;;;;25.61;100.00;100872.72;1355288;104;21139;-42
2021/07/10 06:56:55;;;;;;;7.17;4.97;;;;;;;25.67;100.00;100869.26;1353387;104;21627;-52
2021/07/10 06:59:21;;;;;;;29.45;20.77;;;;;;;25.74;100.00;100874.02;1362866;101;21099;-43
2021/07/10 07:01:50;;;;;;;15.18;10.82;;;;;;;25.78;100.00;100875.34;1412817;96;21166;-42
2021/07/10 07:04:17;;;;;;;63.40;39.50;;;;;;;25.83;100.00;100872.92;1509367;93;21465;-45
2021/07/10 07:06:44;;;;;;;16.37;13.75;;;;;;;25.90;100.00;100877.55;1514608;93;21023;-45
2021/07/10 07:09:11;;;;;;;12.10;7.65;;;;;;;25.97;100.00;100876.28;1560042;89;21508;-51
2021/07/10 07:11:38;;;;;;;11.88;9.60;;;;;;;26.06;100.00;100873.84;1578187;89;21078;-52
2021/07/10 07:14:05;;;;;;;12.30;7.60;;;;;;;26.15;100.00;100875.14;1581798;89;21033;-44
2021/07/10 07:16:33;;;;;;;6.25;4.45;;;;;;;26.22;100.00;100881.58;1581066;89;21019;-43
2021/07/10 07:18:59;;;;;;;4.20;3.80;;;;;;;26.28;100.00;100874.01;1582401;89;20989;-43
2021/07/10 07:21:27;;;;;;;6.58;4.87;;;;;;;26.33;99.15;100871.58;1581549;89;21015;-43
2021/07/10 07:23:56;;;;;;;5.78;3.80;;;;;;;26.43;98.76;100868.59;1578465;89;21518;-43
2021/07/10 07:26:23;;;;;;;4.10;3.60;;;;;;;26.52;95.30;100875.70;1579069;89;21582;-48
2021/07/10 07:28:50;;;;;;;7.72;4.00;;;;;;;26.59;95.03;100867.13;1549544;91;21019;-45
2021/07/10 07:31:18;;;;;;;5.70;3.62;;;;;;;26.63;95.90;100867.07;1550241;91;21753;-45
2021/07/10 07:33:46;;;;;;;4.45;4.05;;;;;;;26.69;92.49;100866.34;1549836;91;21567;-40
2021/07/10 07:36:17;;;;;;;5.62;3.58;;;;;;;26.75;92.31;100862.85;1577777;89;21044;-47
2021/07/10 07:38:45;;;;;;;3.90;3.47;;;;;;;26.80;97.30;100868.30;1577139;89;21051;-46
2021/07/10 07:41:12;;;;;;;5.50;3.62;;;;;;;26.84;89.65;100854.06;1580633;89;21459;-46
2021/07/10 07:43:39;;;;;;;4.50;3.60;;;;;;;26.88;90.81;100856.73;1583700;89;21575;-45
2021/07/10 07:46:06;;;;;;;3.83;3.52;;;;;;;26.93;92.03;100857.02;1583473;89;20994;-44
2021/07/10 07:48:32;;;;;;;5.10;4.03;;;;;;;27.00;91.75;100854.91;1584101;89;20943;-47
2021/07/10 07:51:02;;;;;;;5.12;3.33;;;;;;;27.07;88.98;100859.97;1581672;89;21035;-45
2021/07/10 07:53:29;;;;;;;5.75;3.85;;;;;;;27.14;82.28;100860.39;1576660;89;21011;-46
2021/07/10 07:55:56;;;;;;;6.85;4.03;;;;;;;27.18;82.99;100863.63;1573057;89;20987;-45
2021/07/10 07:58:22;;;;;;;4.78;3.50;;;;;;;27.24;83.22;100864.73;1544656;91;20971;-42
2021/07/10 08:00:49;;;;;;;3.95;3.52;;;;;;;27.28;77.51;100863.33;1546073;90;21084;-44
2021/07/10 08:03:15;;;;;;;5.33;3.75;;;;;;;27.32;77.79;100861.41;1574027;86;20987;-47
2021/07/10 08:05:42;;;;;;;4.58;3.22;;;;;;;27.36;79.32;100863.22;1604627;87;21012;-46
2021/07/10 08:08:27;;;;;;;4.85;3.72;;;;;;;27.40;77.04;100862.66;1628084;86;21043;-42
2021/07/10 08:11:06;;;;;;;5.42;3.22;;;;;;;27.45;81.79;100854.41;1618553;86;21075;-42
2021/07/10 08:13:34;;;;;;;4.62;4.05;;;;;;;27.53;77.85;100858.39;1627774;86;21019;-46
2021/07/10 08:16:01;;;;;;;3.80;3.40;;;;;;;27.60;80.60;100862.91;1658812;85;21058;-42
2021/07/10 08:18:29;;;;;;;4.17;3.40;;;;;;;27.65;83.06;100862.34;1662853;85;20947;-43
2021/07/10 08:20:56;;;;;;;4.80;3.15;;;;;;;27.69;84.18;100858.68;1662019;84;21522;-43
2021/07/10 08:23:23;;;;;;;5.55;4.03;;;;;;;27.71;79.51;100861.55;1662103;85;20927;-42
2021/07/10 08:25:50;;;;;;;3.55;3.10;;;;;;;27.76;72.05;100857.72;1660259;85;21427;-43
2021/07/10 08:28:16;;;;;;;4.47;3.25;;;;;;;27.79;66.59;100858.69;1658373;84;20998;-42
2021/07/10 08:30:44;;;;;;;4.00;3.55;;;;;;;27.84;72.14;100860.88;1745043;81;20948;-42
2021/07/10 08:33:12;;;;;;;3.67;3.20;;;;;;;27.87;73.44;100863.76;1744690;81;20964;-43
2021/07/10 08:35:38;;;;;;;5.15;2.92;;;;;;;27.90;75.90;100860.13;1743017;81;20983;-48
2021/07/10 08:38:06;;;;;;;6.05;3.22;;;;;;;27.94;72.89;100860.05;1745814;81;20924;-45
2021/07/10 08:40:33;;;;;;;7.62;4.90;;;;;;;27.97;71.03;100860.17;1748702;80;21032;-45
2021/07/10 08:43:00;;;;;;;5.50;3.30;;;;;;;27.99;70.07;100861.67;1750353;81;20935;-47
2021/07/10 08:45:30;;;;;;;4.58;3.02;;;;;;;28.03;69.20;100861.63;1742322;81;20967;-41
2021/07/10 08:47:57;;;;;;;5.37;3.33;;;;;;;28.05;68.65;100860.91;1746824;81;20943;-42
2021/07/10 08:50:24;;;;;;;6.12;3.50;;;;;;;28.07;67.97;100855.75;1743640;81;20967;-46
2021/07/10 08:52:51;;;;;;;4.50;3.20;;;;;;;28.07;70.82;100853.85;1747425;81;21213;-43
2021/07/10 08:55:17;;;;;;;3.55;3.20;;;;;;;28.08;70.62;100856.94;1747607;81;21581;-45
2021/07/10 08:57:44;;;;;;;4.17;3.10;;;;;;;28.10;72.08;100854.86;1747646;81;20967;-42
2021/07/10 09:00:21;;;;;;;5.55;2.80;;;;;;;28.15;69.22;100858.35;1743804;81;21014;-42
2021/07/10 09:02:49;;;;;;;4.60;3.87;;;;;;;28.18;71.18;100862.94;1748490;81;21007;-48
2021/07/10 09:05:16;;;;;;;4.53;3.80;;;;;;;28.23;61.89;100860.98;1748475;81;20953;-44
2021/07/10 09:08:20;;;;;;;3.42;2.75;;;;;;;28.29;59.44;100859.34;1752842;81;20945;-44
2021/07/10 09:11:13;;;;;;;5.42;3.50;;;;;;;28.33;62.10;100852.44;1746979;81;20976;-44
2021/07/10 09:13:49;;;;;;;5.78;4.05;;;;;;;28.38;60.49;100851.31;1751799;81;20917;-41
2021/07/10 09:16:34;;;;;;;4.65;3.37;;;;;;;28.39;56.93;100849.73;1750370;81;21023;-42
2021/07/10 09:19:09;;;;;;;4.37;3.45;;;;;;;28.39;56.70;100852.47;1753105;81;21014;-41
2021/07/10 09:21:48;;;;;;;7.12;3.70;;;;;;;28.40;58.99;100847.83;1750324;81;21042;-46
2021/07/10 09:24:35;;;;;;;5.10;3.30;;;;;;;28.45;61.02;100854.97;1749845;81;20995;-44
2021/07/10 09:27:26;;;;;;;3.98;3.42;;;;;;;28.49;57.87;100850.80;1747623;81;21066;-46
2021/07/10 09:30:08;;;;;;;4.90;3.25;;;;;;;28.55;61.93;100853.26;1669418;83;21485;-46
2021/07/10 09:32:34;;;;;;;4.53;4.12;;;;;;;28.61;70.48;100846.47;1669692;84;21033;-43
2021/07/10 09:35:03;;;;;;;4.30;3.90;;;;;;;28.65;64.97;100846.91;1670286;84;20970;-42
2021/07/10 09:37:29;;;;;;;4.75;3.70;;;;;;;28.68;66.95;100843.25;1665643;84;20994;-43
2021/07/10 09:40:08;;;;;;;5.50;3.35;;;;;;;28.74;62.21;100848.98;1670361;84;20998;-42
2021/07/10 09:42:40;;;;;;;4.00;3.47;;;;;;;28.78;59.52;100852.50;1672367;84;21025;-42
2021/07/10 09:45:10;;;;;;;5.22;3.80;;;;;;;28.82;60.38;100841.97;1671601;84;20969;-42
2021/07/10 09:47:37;;;;;;;4.37;3.30;;;;;;;28.83;63.06;100835.45;1672826;84;21537;-44
2021/07/10 09:50:06;;;;;;;3.33;3.00;;;;;;;28.88;60.37;100837.06;1664070;84;20981;-43
2021/07/10 09:52:35;;;;;;;5.08;3.42;;;;;;;28.90;62.21;100831.70;1662517;84;21512;-43
2021/07/10 09:55:10;;;;;;;6.67;3.80;;;;;;;28.93;62.59;100826.33;1676261;84;21494;-41
2021/07/10 09:57:39;;;;;;;7.25;3.50;;;;;;;28.98;61.73;100821.58;1669593;84;20931;-41
2021/07/10 10:00:15;;;;;;;4.40;3.22;;;;;;;29.02;58.88;100824.25;1673014;82;21031;-42
2021/07/10 10:02:48;;;;;;;3.33;3.02;;;;;;;29.05;55.96;100832.08;1746528;81;20912;-41
2021/07/10 10:05:21;;;;;;;4.20;3.45;;;;;;;29.11;64.30;100839.55;1745129;81;21541;-46
2021/07/10 10:07:55;;;;;;;4.22;3.40;;;;;;;29.12;56.79;100833.84;1743166;81;21443;-45
2021/07/10 10:10:27;;;;;;;8.20;3.52;;;;;;;29.14;57.04;100825.41;1740156;80;20972;-44
2021/07/10 10:13:10;;;;;;;7.75;3.27;;;;;;;29.17;59.24;100822.25;1742237;80;20967;-44
2021/07/10 10:15:43;;;;;;;4.00;3.12;;;;;;;29.19;54.13;100822.06;1743985;80;21011;-44
2021/07/10 10:18:17;;;;;;;4.20;3.22;;;;;;;29.21;52.97;100824.92;1748471;80;21007;-45
2021/07/10 10:20:45;;;;;;;5.72;3.35;;;;;;;29.24;57.79;100825.05;1747764;80;20948;-44
2021/07/10 10:23:12;;;;;;;5.37;3.33;;;;;;;29.26;55.17;100827.91;1751087;80;21435;-41
2021/07/10 10:25:39;;;;;;;4.33;3.50;;;;;;;29.28;53.72;100818.07;1745867;80;21562;-43
2021/07/10 10:28:18;;;;;;;4.95;3.20;;;;;;;29.32;55.92;100816.63;1743798;80;20924;-40
2021/07/10 10:30:39;;;;;;;5.03;3.25;;;;;;;29.34;53.62;100809.87;1745148;81;21003;-42
2021/07/10 10:33:05;;;;;;;5.80;3.20;;;;;;;29.36;57.19;100810.18;1747869;80;20980;-43
2021/07/10 10:35:32;;;;;;;3.55;3.25;;;;;;;29.39;61.52;100810.64;1742910;80;21442;-44
2021/07/10 10:37:59;;;;;;;3.77;3.12;;;;;;;29.43;60.27;100813.80;1743088;80;20974;-44
2021/07/10 10:40:26;;;;;;;4.70;3.20;;;;;;;29.45;56.88;100812.55;1743645;81;21601;-49
2021/07/10 10:42:58;;;;;;;4.85;4.00;;;;;;;29.47;53.61;100804.11;1745220;80;20964;-46
2021/07/10 10:45:30;;;;;;;6.40;3.92;;;;;;;29.48;49.99;100808.54;1743707;81;20999;-39
2021/07/10 10:47:59;;;;;;;4.87;3.58;;;;;;;29.48;52.47;100803.05;1744350;80;20975;-38
2021/07/10 10:51:13;;;;;;;6.40;3.98;;;;;;;29.49;52.30;100793.77;1740888;80;21035;-43
2021/07/10 10:54:14;;;;;;;3.37;2.98;;;;;;;29.51;52.92;100791.14;1619667;87;21561;-45
2021/07/10 10:56:42;;;;;;;3.52;3.12;;;;;;;29.55;58.25;100793.77;1602399;87;21159;-43
2021/07/10 10:59:39;;;;;;;4.35;3.20;;;;;;;29.58;54.82;100791.67;1619284;87;21532;-41
2021/07/10 11:02:30;;;;;;;4.20;3.30;;;;;;;29.59;51.88;100793.39;1614979;87;21028;-43
2021/07/10 11:05:03;;;;;;;4.70;3.70;;;;;;;29.62;52.23;100784.72;1614171;87;21015;-45
2021/07/10 11:07:47;;;;;;;4.05;2.87;;;;;;;29.64;55.41;100782.09;1560129;90;21117;-39
2021/07/10 11:10:24;;;;;;;5.97;3.52;;;;;;;29.67;55.47;100780.86;1557031;90;21062;-43
2021/07/10 11:12:57;;;;;;;4.90;3.72;;;;;;;29.69;53.32;100777.38;1560678;90;21092;-40
2021/07/10 11:15:52;;;;;;;5.67;3.83;;;;;;;29.71;50.16;100775.25;1558984;90;21051;-43
2021/07/10 11:18:27;;;;;;;3.50;3.00;;;;;;;29.71;54.59;100775.25;1563750;90;21306;-42
2021/07/10 11:20:54;;;;;;;6.12;3.58;;;;;;;29.70;48.73;100777.16;1564948;90;21034;-43
2021/07/10 11:23:31;;;;;;;6.00;3.75;;;;;;;29.70;48.91;100771.66;1567942;90;21081;-42
2021/07/10 11:26:15;;;;;;;3.30;3.00;;;;;;;29.72;48.58;100775.58;1569553;90;21083;-42
2021/07/10 11:28:51;;;;;;;5.72;3.80;;;;;;;29.73;51.82;100773.98;1569912;90;21013;-41
2021/07/10 11:31:22;;;;;;;3.92;3.55;;;;;;;29.74;51.02;100770.73;1549229;90;21096;-39
2021/07/10 11:34:01;;;;;;;5.60;3.12;;;;;;;29.78;51.72;100774.73;1524485;91;21306;-41
2021/07/10 11:36:44;;;;;;;5.87;3.75;;;;;;;29.80;49.10;100765.77;1543408;91;21398;-43
2021/07/10 11:39:34;;;;;;;4.92;3.58;;;;;;;29.80;49.98;100763.02;1543839;91;21572;-52